Time;durP1;ratioP1;P1;durP2;ratioP2;P2;SDS_P1;SDS_P2;PMS_P1;PMS_P2;Temp;Humidity;BMP_temperature;BMP_pressure;BME280_temperature;BME280_humidity;BME280_pressure;Samples;Min_cycle;Max_cycle;Signal;HPM_P1;HPM_P2
2021/10/05 00:01:23;;;;;;;7.80;5.47;;;11.60;99.90;;;;;;4991811;28;20031;-66
2021/10/05 00:03:48;;;;;;;7.65;5.03;;;11.50;99.90;;;;;;4992037;28;20029;-66
2021/10/05 00:06:14;;;;;;;8.20;4.90;;;11.50;99.90;;;;;;4992236;28;20038;-66
2021/10/05 00:08:40;;;;;;;8.23;5.40;;;11.50;99.90;;;;;;4992209;28;20031;-66
2021/10/05 00:11:06;;;;;;;8.30;5.35;;;11.50;99.90;;;;;;4992419;28;20378;-67
2021/10/05 00:13:32;;;;;;;8.13;5.07;;;11.50;99.90;;;;;;4991832;28;20394;-67
2021/10/05 00:15:58;;;;;;;11.68;5.60;;;11.50;99.90;;;;;;4991941;28;20014;-66
2021/10/05 00:18:24;;;;;;;7.68;5.30;;;11.50;99.90;;;;;;4991622;28;20062;-67
2021/10/05 00:20:50;;;;;;;6.63;4.75;;;11.40;99.90;;;;;;4991708;28;20057;-67
2021/10/05 00:23:15;;;;;;;6.07;4.88;;;11.40;99.90;;;;;;4991570;28;20054;-66
2021/10/05 00:25:41;;;;;;;7.28;4.28;;;11.40;99.90;;;;;;4991789;28;20030;-67
2021/10/05 00:28:07;;;;;;;8.45;4.72;;;11.40;99.90;;;;;;4991432;28;20710;-67
2021/10/05 00:30:33;;;;;;;6.40;4.80;;;11.40;99.90;;;;;;4990375;28;20023;-67
2021/10/05 00:32:59;;;;;;;5.10;4.43;;;11.40;99.90;;;;;;4991500;28;20054;-67
2021/10/05 00:35:24;;;;;;;5.88;4.70;;;11.40;99.90;;;;;;4991650;28;20061;-67
2021/10/05 00:37:50;;;;;;;6.10;5.13;;;11.40;99.90;;;;;;4991369;28;20030;-67
2021/10/05 00:40:16;;;;;;;6.05;4.30;;;11.40;99.90;;;;;;4991542;28;20022;-67
2021/10/05 00:42:42;;;;;;;7.20;4.65;;;11.30;99.90;;;;;;4991384;28;20494;-67
2021/10/05 00:45:08;;;;;;;5.63;4.70;;;11.40;99.90;;;;;;4991170;28;20037;-67
2021/10/05 00:47:34;;;;;;;5.20;3.92;;;11.40;99.90;;;;;;4988341;28;20552;-66
2021/10/05 00:49:59;;;;;;;10.52;3.92;;;11.30;99.90;;;;;;4991359;28;20022;-69
2021/10/05 00:52:25;;;;;;;4.43;3.60;;;11.40;99.90;;;;;;4991161;28;20501;-67
2021/10/05 00:54:51;;;;;;;4.28;3.88;;;11.40;99.90;;;;;;4990960;28;20085;-67
2021/10/05 00:57:17;;;;;;;5.15;4.00;;;11.40;99.90;;;;;;4991287;28;20031;-68
2021/10/05 00:59:42;;;;;;;5.70;4.20;;;11.40;99.90;;;;;;4991394;28;20105;-67
2021/10/05 01:02:11;;;;;;;8.27;3.80;;;11.40;99.90;;;;;;4991052;28;20135;-67
2021/10/05 01:04:37;;;;;;;5.25;4.13;;;11.40;99.90;;;;;;4991238;28;20390;-67
2021/10/05 01:07:06;;;;;;;4.88;3.92;;;11.40;99.90;;;;;;4991114;28;20030;-67
2021/10/05 01:09:33;;;;;;;5.45;3.65;;;11.40;99.90;;;;;;4991270;28;20148;-67
2021/10/05 01:11:59;;;;;;;6.50;3.40;;;11.40;99.90;;;;;;4990882;28;20480;-68
2021/10/05 01:14:25;;;;;;;4.60;3.17;;;11.40;99.90;;;;;;4990842;28;20026;-67
2021/10/05 01:16:55;;;;;;;6.75;3.10;;;11.40;99.90;;;;;;4991185;28;20103;-67
2021/10/05 01:19:21;;;;;;;3.90;3.38;;;11.40;99.90;;;;;;4990688;28;20045;-67
2021/10/05 01:21:46;;;;;;;4.30;3.25;;;11.40;99.90;;;;;;4991098;28;20022;-67
2021/10/05 01:24:18;;;;;;;3.65;2.88;;;11.40;99.90;;;;;;4990560;28;20383;-67
2021/10/05 01:26:43;;;;;;;3.78;3.15;;;11.40;99.90;;;;;;4990554;28;20041;-67
2021/10/05 01:29:16;;;;;;;4.25;3.10;;;11.30;99.90;;;;;;4991043;28;20022;-68
2021/10/05 01:31:45;;;;;;;5.40;3.20;;;11.30;99.90;;;;;;4991012;28;20028;-68
2021/10/05 01:34:11;;;;;;;4.38;3.28;;;11.30;99.90;;;;;;4990413;28;20034;-67
2021/10/05 01:36:37;;;;;;;4.57;2.90;;;11.40;99.90;;;;;;4989555;28;20061;-67
2021/10/05 01:39:19;;;;;;;4.18;2.60;;;11.40;99.90;;;;;;4990981;28;20026;-67
2021/10/05 01:41:46;;;;;;;3.60;2.97;;;11.30;99.90;;;;;;4990255;28;20031;-67
2021/10/05 01:44:11;;;;;;;3.10;2.78;;;11.30;99.90;;;;;;4990374;28;20463;-68
2021/10/05 01:46:37;;;;;;;4.88;2.50;;;11.30;99.90;;;;;;4990648;28;20091;-68
2021/10/05 01:49:04;;;;;;;2.45;2.25;;;11.30;99.90;;;;;;4990838;28;20117;-68
2021/10/05 01:51:29;;;;;;;5.22;2.03;;;11.30;99.90;;;;;;4990368;28;20031;-68
2021/10/05 01:53:55;;;;;;;6.53;2.10;;;11.30;99.90;;;;;;4990025;28;20027;-68
2021/10/05 01:56:21;;;;;;;4.97;1.98;;;11.30;99.90;;;;;;4990263;28;20026;-68
2021/10/05 01:58:47;;;;;;;4.63;2.08;;;11.30;99.90;;;;;;4990212;28;20022;-67
2021/10/05 02:01:13;;;;;;;4.78;1.90;;;11.30;99.90;;;;;;4990520;28;20378;-68
2021/10/05 02:03:39;;;;;;;2.67;1.90;;;11.30;99.90;;;;;;4990047;28;20077;-68
2021/10/05 02:06:05;;;;;;;2.00;1.77;;;11.30;99.90;;;;;;4990388;28;20505;-68
2021/10/05 02:08:31;;;;;;;3.13;1.67;;;11.30;99.90;;;;;;4989848;28;20481;-68
2021/10/05 02:10:57;;;;;;;3.28;1.88;;;11.30;99.90;;;;;;4990352;28;20026;-68
2021/10/05 02:13:22;;;;;;;2.30;1.83;;;11.20;99.90;;;;;;4990142;28;20466;-67
2021/10/05 02:15:48;;;;;;;6.03;1.50;;;11.20;99.90;;;;;;4989972;28;20496;-67
2021/10/05 02:18:14;;;;;;;3.55;1.73;;;11.20;99.90;;;;;;4989916;28;20030;-67
2021/10/05 02:20:40;;;;;;;2.42;1.55;;;11.20;99.90;;;;;;4990005;28;20105;-68
2021/10/05 02:23:06;;;;;;;3.63;1.52;;;11.20;99.90;;;;;;4988714;28;20018;-68
2021/10/05 02:54:35;;;;;;;1.65;0.98;;;11.10;99.90;;;;;;4988181;28;20528;-67
2021/10/05 02:57:01;;;;;;;1.92;1.00;;;11.10;99.90;;;;;;4989566;28;20105;-68
2021/10/05 02:59:28;;;;;;;3.00;1.15;;;11.10;99.90;;;;;;4989290;28;20022;-67
2021/10/05 03:01:54;;;;;;;2.90;1.25;;;11.00;99.90;;;;;;4989473;28;20033;-68
2021/10/05 03:04:20;;;;;;;3.10;1.10;;;11.10;99.90;;;;;;4989296;28;20022;-68
2021/10/05 03:06:45;;;;;;;4.55;1.10;;;11.00;99.90;;;;;;4989604;28;20038;-68
2021/10/05 03:09:11;;;;;;;1.45;0.90;;;11.00;99.90;;;;;;4989732;28;20026;-67
2021/10/05 03:11:37;;;;;;;2.72;1.20;;;11.00;99.90;;;;;;4989385;28;20327;-68
2021/10/05 03:14:03;;;;;;;3.70;1.23;;;11.00;99.90;;;;;;4989115;28;20030;-68
2021/10/05 03:16:28;;;;;;;3.08;1.20;;;11.00;99.90;;;;;;4989251;28;20026;-67
2021/10/05 03:18:54;;;;;;;2.72;1.20;;;11.00;99.90;;;;;;4989105;28;20027;-68
2021/10/05 03:21:20;;;;;;;4.40;1.25;;;11.00;99.90;;;;;;4989170;28;20022;-68
2021/10/05 03:23:46;;;;;;;3.90;1.00;;;11.00;99.90;;;;;;4989581;28;20386;-67
2021/10/05 03:26:13;;;;;;;2.78;1.02;;;11.00;99.90;;;;;;4988770;28;20042;-68
2021/10/05 03:28:38;;;;;;;2.92;1.20;;;11.00;99.90;;;;;;4988943;28;20062;-70
2021/10/05 03:31:04;;;;;;;4.22;1.42;;;11.00;99.90;;;;;;4989076;28;20050;-68
2021/10/05 03:33:30;;;;;;;1.67;1.23;;;11.00;99.90;;;;;;4989406;28;20058;-68
2021/10/05 03:35:56;;;;;;;6.88;1.20;;;11.00;99.90;;;;;;4988883;28;20485;-69
2021/10/05 03:38:22;;;;;;;1.52;0.82;;;11.00;99.90;;;;;;4989289;28;20030;-71
2021/10/05 03:40:49;;;;;;;4.90;1.30;;;11.00;99.90;;;;;;4988899;28;20489;-69
2021/10/05 03:43:15;;;;;;;3.38;1.10;;;11.00;99.90;;;;;;4988856;28;20034;-71
2021/10/05 03:45:40;;;;;;;2.33;1.05;;;11.00;99.90;;;;;;4988668;28;20050;-72
2021/10/05 03:48:06;;;;;;;7.22;0.90;;;10.90;99.90;;;;;;4988672;28;20134;-71
2021/10/05 03:50:32;;;;;;;5.15;1.10;;;10.90;99.90;;;;;;4989301;28;20023;-71
2021/10/05 03:52:58;;;;;;;5.75;1.20;;;10.90;99.90;;;;;;4989269;28;20092;-71
2021/10/05 03:55:24;;;;;;;2.70;0.85;;;10.90;99.90;;;;;;4988820;28;20043;-69
2021/10/05 03:57:49;;;;;;;6.13;1.42;;;10.90;99.90;;;;;;4988834;28;20045;-70
2021/10/05 04:00:15;;;;;;;7.72;1.05;;;10.90;99.90;;;;;;4988675;28;20466;-70
2021/10/05 04:02:41;;;;;;;3.90;1.10;;;10.90;99.90;;;;;;4988540;28;20037;-71
2021/10/05 04:05:08;;;;;;;2.42;0.88;;;10.80;99.90;;;;;;4990346;28;20049;-68
2021/10/05 04:07:35;;;;;;;3.20;0.77;;;10.90;99.90;;;;;;4992143;28;20055;-71
2021/10/05 04:10:01;;;;;;;1.30;0.90;;;10.90;99.90;;;;;;4992275;28;20412;-68
2021/10/05 04:12:27;;;;;;;3.42;0.85;;;10.80;99.90;;;;;;4974379;28;20040;-68
2021/10/05 04:14:53;;;;;;;2.50;0.93;;;10.80;99.90;;;;;;4990234;28;20093;-70
2021/10/05 04:17:18;;;;;;;3.28;1.00;;;10.80;99.90;;;;;;4991792;28;20118;-69
2021/10/05 04:19:44;;;;;;;2.47;0.85;;;10.80;99.90;;;;;;4988867;28;20038;-72
2021/10/05 04:22:10;;;;;;;2.03;0.82;;;10.90;99.90;;;;;;4986116;28;20079;-69
2021/10/05 04:24:36;;;;;;;2.20;0.80;;;10.80;99.90;;;;;;4991375;28;20076;-69
2021/10/05 04:27:08;;;;;;;5.30;1.10;;;10.80;99.90;;;;;;4991424;28;20066;-68
2021/10/05 04:29:33;;;;;;;3.08;0.93;;;10.80;99.90;;;;;;4988208;28;20026;-71
2021/10/05 04:31:59;;;;;;;2.65;1.30;;;10.90;99.90;;;;;;4987983;28;20053;-72
2021/10/05 04:34:25;;;;;;;1.92;1.02;;;10.90;99.90;;;;;;4985436;28;20073;-71
2021/10/05 04:36:50;;;;;;;1.13;0.77;;;10.90;99.90;;;;;;4987003;28;20030;-72
2021/10/05 04:39:16;;;;;;;6.72;1.42;;;10.90;99.90;;;;;;4989692;28;20033;-71
2021/10/05 04:41:42;;;;;;;3.35;1.30;;;10.90;99.90;;;;;;4990691;28;20081;-73
2021/10/05 04:44:07;;;;;;;7.47;1.55;;;10.90;99.90;;;;;;4990880;28;20482;-71
2021/10/05 04:46:33;;;;;;;4.80;1.10;;;10.90;99.90;;;;;;4990564;28;20645;-71
2021/10/05 04:48:59;;;;;;;6.07;1.20;;;10.90;99.90;;;;;;4988103;28;20084;-71
2021/10/05 04:51:25;;;;;;;1.92;1.30;;;11.00;99.90;;;;;;4985210;28;20406;-71
2021/10/05 04:53:50;;;;;;;6.40;1.45;;;10.90;99.90;;;;;;4990679;28;20064;-72
2021/10/05 04:56:16;;;;;;;6.28;1.75;;;11.00;99.90;;;;;;4990795;28;20071;-71
2021/10/05 04:58:42;;;;;;;5.35;1.40;;;11.40;99.90;;;;;;4991227;28;20030;-71
2021/10/05 05:01:07;;;;;;;3.03;1.27;;;11.50;99.90;;;;;;4991215;28;20034;-71
2021/10/05 05:03:33;;;;;;;4.88;1.13;;;11.30;99.90;;;;;;4990893;28;20528;-71
2021/10/05 05:05:59;;;;;;;2.90;1.30;;;11.30;99.90;;;;;;4990706;28;20037;-71
2021/10/05 05:08:24;;;;;;;6.82;1.50;;;11.20;99.90;;;;;;4990880;28;20052;-71
2021/10/05 05:10:50;;;;;;;4.10;1.25;;;11.20;99.90;;;;;;4989641;28;20423;-71
2021/10/05 05:13:16;;;;;;;2.85;1.20;;;11.20;99.90;;;;;;4990552;28;20018;-71
2021/10/05 05:15:43;;;;;;;5.47;1.90;;;11.20;99.90;;;;;;4989812;28;20022;-71
2021/10/05 05:18:08;;;;;;;6.43;1.30;;;11.20;99.90;;;;;;4989345;28;20057;-71
2021/10/05 05:20:34;;;;;;;4.05;1.13;;;11.20;99.90;;;;;;4990931;28;20418;-69
2021/10/05 05:23:00;;;;;;;3.05;1.30;;;11.20;99.90;;;;;;4990729;28;20367;-70
2021/10/05 05:25:26;;;;;;;19.13;1.60;;;11.30;99.90;;;;;;4987606;28;20044;-69
2021/10/05 05:27:51;;;;;;;6.57;1.65;;;11.30;99.90;;;;;;4990869;28;20539;-74
2021/10/05 05:30:17;;;;;;;3.30;1.15;;;11.30;99.90;;;;;;4990523;28;20473;-72
2021/10/05 05:32:43;;;;;;;7.47;1.48;;;11.20;99.90;;;;;;4989036;28;20030;-71
2021/10/05 05:35:09;;;;;;;3.72;1.52;;;11.20;99.90;;;;;;4989760;28;20027;-69
2021/10/05 05:37:35;;;;;;;5.57;1.67;;;11.20;99.90;;;;;;4990003;28;20023;-71
2021/10/05 05:40:01;;;;;;;3.63;1.38;;;11.20;99.90;;;;;;4990081;28;20034;-71
2021/10/05 05:42:26;;;;;;;4.55;1.60;;;11.20;99.90;;;;;;4990087;28;20474;-71
2021/10/05 05:44:52;;;;;;;5.88;1.33;;;11.20;99.90;;;;;;4989948;28;20022;-71
2021/10/05 05:47:18;;;;;;;4.47;1.30;;;11.20;99.90;;;;;;4990029;28;20109;-70
2021/10/05 05:49:44;;;;;;;4.38;1.20;;;11.20;99.90;;;;;;4989306;28;20026;-68
2021/10/05 05:52:09;;;;;;;1.52;1.08;;;11.20;99.90;;;;;;4984272;28;20034;-69
2021/10/05 05:54:35;;;;;;;3.40;1.17;;;11.20;99.90;;;;;;4984327;28;20042;-67
2021/10/05 05:57:01;;;;;;;3.47;1.05;;;11.20;99.90;;;;;;4982267;28;20026;-69
2021/10/05 05:59:27;;;;;;;2.13;0.93;;;11.20;99.90;;;;;;4987702;28;20018;-69
2021/10/05 06:01:52;;;;;;;9.35;1.60;;;11.20;99.90;;;;;;4989936;28;20400;-70
2021/10/05 06:04:18;;;;;;;9.10;1.60;;;11.20;99.90;;;;;;4989365;28;20037;-72
2021/10/05 06:06:44;;;;;;;4.82;1.27;;;11.20;99.90;;;;;;4988711;28;20116;-71
2021/10/05 06:09:10;;;;;;;2.95;1.17;;;11.40;99.90;;;;;;4989950;28;20026;-67
2021/10/05 06:11:39;;;;;;;2.03;1.38;;;11.60;99.90;;;;;;4990182;28;20029;-67
2021/10/05 06:14:05;;;;;;;2.67;1.40;;;11.60;99.90;;;;;;4989621;28;20044;-67
2021/10/05 06:16:31;;;;;;;5.18;1.67;;;11.50;99.90;;;;;;4990210;28;20109;-67
2021/10/05 06:18:57;;;;;;;5.97;1.63;;;11.40;99.90;;;;;;4990410;28;20513;-67
2021/10/05 06:21:23;;;;;;;4.55;1.50;;;11.40;99.90;;;;;;4990306;28;20031;-67
2021/10/05 06:23:48;;;;;;;9.80;1.70;;;11.40;99.90;;;;;;4990172;28;20174;-67
2021/10/05 06:26:14;;;;;;;5.35;1.45;;;11.40;99.90;;;;;;4990167;28;20114;-67
2021/10/05 06:28:42;;;;;;;5.78;1.40;;;11.30;99.90;;;;;;4990136;28;20034;-67
2021/10/05 06:31:08;;;;;;;4.28;1.40;;;11.40;99.90;;;;;;4990114;28;20512;-67
2021/10/05 06:33:34;;;;;;;7.65;1.80;;;11.40;99.90;;;;;;4990131;28;20113;-67
2021/10/05 06:35:59;;;;;;;5.00;1.40;;;11.40;99.90;;;;;;4990168;28;20027;-67
2021/10/05 06:38:25;;;;;;;2.88;1.40;;;11.40;99.90;;;;;;4990140;28;20033;-67
2021/10/05 06:40:52;;;;;;;5.28;1.52;;;11.40;99.90;;;;;;4990262;28;20031;-67
2021/10/05 06:43:19;;;;;;;3.30;1.90;;;11.40;99.90;;;;;;4990236;28;20031;-67
2021/10/05 06:45:45;;;;;;;3.88;1.80;;;11.40;99.90;;;;;;4989969;28;20101;-68
2021/10/05 06:48:11;;;;;;;5.68;1.67;;;11.40;99.90;;;;;;4990115;28;20125;-68
2021/10/05 06:50:37;;;;;;;7.07;1.85;;;11.40;99.90;;;;;;4990060;28;20457;-67
2021/10/05 06:53:04;;;;;;;6.00;1.70;;;11.40;99.90;;;;;;4990157;28;20084;-68
2021/10/05 06:55:31;;;;;;;5.95;1.30;;;11.40;99.90;;;;;;4989624;28;20086;-67
2021/10/05 06:57:58;;;;;;;3.85;1.45;;;11.40;99.90;;;;;;4989972;28;20023;-68
2021/10/05 07:00:24;;;;;;;8.43;1.65;;;11.40;99.90;;;;;;4989762;28;20509;-68
2021/10/05 07:02:50;;;;;;;3.63;1.63;;;11.40;99.90;;;;;;4989670;28;20031;-68
2021/10/05 07:05:20;;;;;;;7.28;2.00;;;11.50;99.90;;;;;;4989969;28;20076;-67
2021/10/05 07:07:49;;;;;;;4.95;1.80;;;11.50;99.90;;;;;;4989669;28;20035;-67
2021/10/05 07:10:17;;;;;;;4.78;1.98;;;11.50;99.90;;;;;;4989922;28;20034;-68
2021/10/05 07:12:43;;;;;;;5.50;1.67;;;11.50;99.90;;;;;;4989537;28;20516;-67
2021/10/05 07:15:11;;;;;;;5.50;1.52;;;11.50;99.90;;;;;;4989715;28;20385;-67
2021/10/05 07:17:37;;;;;;;5.30;1.70;;;11.50;99.90;;;;;;4989555;28;20485;-68
2021/10/05 07:20:04;;;;;;;2.90;1.60;;;11.50;99.90;;;;;;4989658;28;20069;-68
2021/10/05 07:22:30;;;;;;;5.88;1.70;;;11.50;99.90;;;;;;4989670;28;20038;-67
2021/10/05 07:24:56;;;;;;;7.50;1.90;;;11.50;99.90;;;;;;4989459;28;20022;-67
2021/10/05 07:27:23;;;;;;;4.88;1.83;;;11.50;99.90;;;;;;4989548;28;20042;-67
2021/10/05 07:29:49;;;;;;;4.93;1.90;;;11.50;99.90;;;;;;4989300;28;20030;-67
2021/10/05 07:32:15;;;;;;;3.83;1.92;;;11.50;99.90;;;;;;4989532;28;20053;-67
2021/10/05 07:34:42;;;;;;;6.95;2.00;;;11.60;99.90;;;;;;4989180;28;20425;-68
2021/10/05 07:37:08;;;;;;;3.35;1.77;;;11.60;99.90;;;;;;4989320;28;20027;-67
2021/10/05 07:39:34;;;;;;;4.43;1.70;;;11.60;99.90;;;;;;4990140;28;20031;-68
2021/10/05 07:42:00;;;;;;;7.90;2.25;;;11.60;99.90;;;;;;4993016;28;20026;-67
2021/10/05 07:44:26;;;;;;;4.57;1.90;;;11.60;99.90;;;;;;4992734;28;20049;-68
2021/10/05 07:46:52;;;;;;;7.70;2.40;;;11.60;99.90;;;;;;4992401;28;20043;-68
2021/10/05 07:49:17;;;;;;;8.88;2.10;;;11.60;99.90;;;;;;4992752;28;20096;-67
2021/10/05 07:51:43;;;;;;;8.75;2.30;;;11.60;99.90;;;;;;4992685;28;20109;-68
2021/10/05 07:54:09;;;;;;;6.18;2.03;;;11.60;99.90;;;;;;4992371;28;20402;-68
2021/10/05 07:56:34;;;;;;;6.18;2.03;;;11.70;99.90;;;;;;4992350;28;20060;-68
2021/10/05 07:59:00;;;;;;;5.68;2.10;;;11.70;99.90;;;;;;4992642;28;20057;-67
2021/10/05 08:01:26;;;;;;;7.00;2.00;;;11.70;99.90;;;;;;4992492;28;20030;-67
2021/10/05 08:03:51;;;;;;;5.47;2.20;;;11.70;99.90;;;;;;4992328;28;20486;-67
2021/10/05 08:06:17;;;;;;;6.22;2.20;;;11.70;99.90;;;;;;4992307;28;20035;-67
2021/10/05 08:08:46;;;;;;;7.65;1.95;;;11.70;99.90;;;;;;4992484;28;20030;-68
2021/10/05 08:11:12;;;;;;;5.43;2.40;;;11.80;99.90;;;;;;4992590;28;20428;-67
2021/10/05 08:13:38;;;;;;;10.98;2.70;;;11.80;99.90;;;;;;4992463;28;20027;-67
2021/10/05 08:16:04;;;;;;;8.18;2.38;;;11.80;99.90;;;;;;4992132;28;20032;-67
2021/10/05 08:18:29;;;;;;;7.05;2.60;;;11.80;99.90;;;;;;4992620;28;20035;-67
2021/10/05 08:20:56;;;;;;;6.75;2.45;;;11.80;99.90;;;;;;4992164;28;20044;-67
2021/10/05 08:23:21;;;;;;;7.68;2.25;;;11.90;99.90;;;;;;4992221;28;20091;-67
2021/10/05 08:25:47;;;;;;;11.90;2.15;;;11.90;99.90;;;;;;4991963;28;20470;-67
2021/10/05 08:28:13;;;;;;;8.93;2.03;;;11.90;99.90;;;;;;4992014;28;20042;-67
2021/10/05 08:30:40;;;;;;;9.70;2.20;;;11.90;99.90;;;;;;4991820;28;20113;-67
2021/10/05 08:33:06;;;;;;;8.82;2.45;;;11.90;99.90;;;;;;4991992;28;20042;-67
2021/10/05 08:35:32;;;;;;;7.30;2.05;;;12.00;99.90;;;;;;4992056;28;20474;-67
2021/10/05 08:37:59;;;;;;;5.72;2.08;;;12.00;99.90;;;;;;4991942;28;20038;-67
2021/10/05 08:40:25;;;;;;;7.65;1.88;;;12.00;99.90;;;;;;4992028;28;20023;-67
2021/10/05 08:42:51;;;;;;;9.77;2.20;;;12.10;99.90;;;;;;4990219;28;20103;-69
2021/10/05 08:45:17;;;;;;;7.45;2.05;;;12.10;99.90;;;;;;4991214;28;20034;-68
2021/10/05 08:47:43;;;;;;;4.07;1.98;;;12.10;99.90;;;;;;4989839;28;20180;-69
2021/10/05 08:50:10;;;;;;;4.22;2.05;;;12.10;99.90;;;;;;4990617;28;20034;-68
2021/10/05 08:52:37;;;;;;;5.57;1.80;;;12.20;99.90;;;;;;4987342;28;20038;-69
2021/10/05 08:55:04;;;;;;;10.95;2.20;;;12.20;99.90;;;;;;4988097;28;20043;-68
2021/10/05 08:57:30;;;;;;;5.70;1.90;;;12.20;99.90;;;;;;4991144;28;20076;-69
2021/10/05 08:59:58;;;;;;;8.30;2.00;;;12.30;99.90;;;;;;4991053;28;20030;-69
2021/10/05 09:02:24;;;;;;;12.35;3.40;;;12.30;99.90;;;;;;4991207;28;20034;-69
2021/10/05 09:04:56;;;;;;;7.07;2.00;;;12.30;99.90;;;;;;4990859;28;20022;-69
2021/10/05 09:07:24;;;;;;;6.18;2.28;;;12.40;99.90;;;;;;4990880;28;20049;-69
2021/10/05 09:09:55;;;;;;;5.82;2.08;;;12.40;99.90;;;;;;4991129;28;20048;-69
2021/10/05 09:12:26;;;;;;;5.18;1.83;;;12.40;99.90;;;;;;4991429;28;20054;-68
2021/10/05 09:14:52;;;;;;;8.15;2.05;;;12.40;99.90;;;;;;4991147;28;20030;-69
2021/10/05 09:17:20;;;;;;;6.88;1.83;;;12.40;99.90;;;;;;4991400;28;20118;-69
2021/10/05 09:19:46;;;;;;;7.63;1.88;;;12.40;99.90;;;;;;4991250;28;20485;-68
2021/10/05 09:22:17;;;;;;;5.53;1.83;;;12.40;99.90;;;;;;4991283;28;20057;-69
2021/10/05 09:24:46;;;;;;;9.88;1.92;;;12.40;99.90;;;;;;4991227;28;20028;-69
2021/10/05 09:27:13;;;;;;;9.35;2.50;;;12.40;99.90;;;;;;4991011;28;20569;-69
2021/10/05 09:29:39;;;;;;;7.40;2.55;;;12.40;99.90;;;;;;4991121;28;20042;-69
2021/10/05 09:32:05;;;;;;;6.40;1.80;;;12.50;99.90;;;;;;4991326;28;20105;-69
2021/10/05 09:34:36;;;;;;;7.13;2.00;;;12.50;99.90;;;;;;4991125;28;20426;-68
2021/10/05 09:37:09;;;;;;;9.60;2.25;;;12.50;99.90;;;;;;4990840;28;20030;-69
2021/10/05 09:40:08;;;;;;;6.32;1.95;;;12.60;99.90;;;;;;4990923;28;20105;-68
2021/10/05 09:42:43;;;;;;;11.48;3.28;;;12.60;99.90;;;;;;4991130;28;20105;-69
2021/10/05 09:45:15;;;;;;;10.65;1.90;;;12.70;99.90;;;;;;4991149;28;20158;-68
2021/10/05 09:47:43;;;;;;;12.68;2.22;;;12.70;99.90;;;;;;4989537;28;20032;-68
2021/10/05 09:50:16;;;;;;;14.05;2.90;;;12.80;99.90;;;;;;4991028;28;20406;-68
2021/10/05 09:52:51;;;;;;;10.35;2.03;;;12.80;99.90;;;;;;4990880;28;20032;-69
2021/10/05 09:55:20;;;;;;;8.40;2.42;;;12.90;99.90;;;;;;4990592;28;20452;-69
2021/10/05 09:57:46;;;;;;;10.82;2.10;;;12.90;99.90;;;;;;4990902;28;20109;-69
2021/10/05 10:00:12;;;;;;;9.98;2.75;;;12.90;99.90;;;;;;4990885;28;20033;-69
2021/10/05 10:02:40;;;;;;;10.02;2.33;;;12.90;99.90;;;;;;4990224;28;20026;-68
2021/10/05 10:05:08;;;;;;;8.82;2.08;;;13.00;99.90;;;;;;4989331;28;20079;-68
2021/10/05 10:07:42;;;;;;;13.63;2.55;;;13.00;99.90;;;;;;4990807;28;20049;-68
2021/10/05 10:10:10;;;;;;;10.43;2.28;;;13.10;99.90;;;;;;4990506;28;20030;-68
2021/10/05 10:13:06;;;;;;;9.18;2.47;;;13.10;99.90;;;;;;4990528;28;20478;-68
2021/10/05 10:15:41;;;;;;;8.88;2.67;;;13.20;99.90;;;;;;4987166;28;20035;-68
2021/10/05 10:18:08;;;;;;;9.80;2.45;;;13.20;99.90;;;;;;4990714;28;20382;-68
2021/10/05 10:20:36;;;;;;;5.82;2.00;;;13.30;99.90;;;;;;4990537;28;20065;-69
2021/10/05 10:23:03;;;;;;;8.20;1.95;;;13.30;99.90;;;;;;4990063;28;20031;-68
2021/10/05 10:25:32;;;;;;;7.78;2.13;;;13.30;99.90;;;;;;4990272;28;20038;-69
2021/10/05 10:28:13;;;;;;;9.15;2.20;;;13.30;99.90;;;;;;4990144;28;20125;-69
2021/10/05 10:30:55;;;;;;;6.28;2.10;;;13.40;99.90;;;;;;4988615;28;20382;-70
2021/10/05 10:33:22;;;;;;;5.55;1.75;;;13.40;99.90;;;;;;4988632;28;20026;-70
2021/10/05 10:35:58;;;;;;;6.63;2.00;;;13.40;99.90;;;;;;4989190;28;20030;-69
2021/10/05 10:38:25;;;;;;;7.53;2.20;;;13.40;99.90;;;;;;4989580;28;20105;-69
2021/10/05 10:40:52;;;;;;;6.82;1.83;;;13.50;99.90;;;;;;4989170;28;20048;-69
2021/10/05 10:43:20;;;;;;;7.28;2.55;;;13.50;99.90;;;;;;4989435;28;20363;-69
2021/10/05 10:45:52;;;;;;;12.95;1.90;;;13.50;99.90;;;;;;4989931;28;20049;-69
2021/10/05 10:48:52;;;;;;;9.07;2.13;;;13.50;99.90;;;;;;4990136;28;20042;-69
2021/10/05 10:51:20;;;;;;;16.42;2.30;;;13.50;99.90;;;;;;4993043;28;20034;-69
2021/10/05 10:53:47;;;;;;;6.03;1.52;;;13.50;99.90;;;;;;4989769;28;20039;-69
2021/10/05 10:56:36;;;;;;;5.20;1.90;;;13.60;99.90;;;;;;4990118;28;20022;-69
2021/10/05 10:59:07;;;;;;;7.75;2.72;;;13.50;99.90;;;;;;4989588;28;20042;-69
2021/10/05 11:01:45;;;;;;;11.50;2.10;;;13.50;99.90;;;;;;4989749;28;20027;-69
2021/10/05 11:04:12;;;;;;;5.70;1.85;;;13.50;99.90;;;;;;4990166;28;20109;-69
2021/10/05 11:06:38;;;;;;;10.90;2.58;;;13.50;99.90;;;;;;4989420;28;20490;-68
2021/10/05 11:09:06;;;;;;;9.30;2.10;;;13.40;99.90;;;;;;4988998;28;20406;-69
2021/10/05 11:11:41;;;;;;;7.07;2.10;;;13.50;99.90;;;;;;4989094;28;20110;-69
2021/10/05 11:14:10;;;;;;;4.70;1.42;;;13.40;99.90;;;;;;4985086;28;20018;-68
2021/10/05 11:16:38;;;;;;;7.13;2.10;;;13.40;99.90;;;;;;4987224;28;20069;-69
2021/10/05 11:19:07;;;;;;;5.93;1.90;;;13.40;99.90;;;;;;4989195;28;20029;-68
2021/10/05 11:21:35;;;;;;;7.13;1.75;;;13.40;99.90;;;;;;4989312;28;20443;-68
2021/10/05 11:24:00;;;;;;;10.02;2.20;;;13.40;99.90;;;;;;4989430;28;20102;-69
2021/10/05 11:26:42;;;;;;;4.10;1.75;;;13.40;99.90;;;;;;4989381;28;20106;-69
2021/10/05 11:29:09;;;;;;;7.97;2.28;;;13.40;99.90;;;;;;4989805;28;20030;-69
2021/10/05 11:31:46;;;;;;;7.30;2.17;;;13.40;99.90;;;;;;4989922;28;20057;-69
2021/10/05 11:34:11;;;;;;;6.05;2.10;;;13.40;99.90;;;;;;4989862;28;20061;-68
2021/10/05 11:36:38;;;;;;;15.50;2.42;;;13.40;99.90;;;;;;4989538;28;20054;-68
2021/10/05 11:39:06;;;;;;;12.95;3.17;;;13.40;99.90;;;;;;4989330;28;20027;-69
2021/10/05 11:41:40;;;;;;;5.53;1.70;;;13.40;99.90;;;;;;4983327;28;20054;-68
2021/10/05 11:44:18;;;;;;;6.22;1.88;;;13.30;99.90;;;;;;4967935;28;20038;-69
2021/10/05 11:46:55;;;;;;;4.68;1.65;;;13.30;99.90;;;;;;4973669;28;20061;-69
2021/10/05 11:49:23;;;;;;;6.47;1.95;;;13.30;99.90;;;;;;4985949;28;20073;-69
2021/10/05 11:51:51;;;;;;;4.60;1.75;;;13.30;99.90;;;;;;4988778;28;20474;-68
2021/10/05 11:54:23;;;;;;;5.07;1.65;;;13.30;99.90;;;;;;4972347;28;20039;-68
2021/10/05 11:56:48;;;;;;;2.45;1.38;;;13.30;99.90;;;;;;4983965;28;20088;-68
2021/10/05 11:59:29;;;;;;;8.35;1.77;;;13.30;99.90;;;;;;4977566;28;20129;-68
2021/10/05 12:01:57;;;;;;;5.38;2.08;;;13.30;99.90;;;;;;4981142;28;20057;-68
2021/10/05 12:04:25;;;;;;;11.07;2.13;;;13.30;99.90;;;;;;4988687;28;20410;-68
2021/10/05 12:07:03;;;;;;;7.28;2.20;;;13.30;99.90;;;;;;4988707;28;20030;-68
2021/10/05 12:09:30;;;;;;;2.58;1.75;;;13.20;99.90;;;;;;4988782;28;20022;-69
2021/10/05 12:12:09;;;;;;;11.18;1.77;;;13.20;99.90;;;;;;4988441;28;20125;-69
2021/10/05 12:14:53;;;;;;;8.98;2.03;;;13.20;99.90;;;;;;4988907;28;20478;-69
2021/10/05 12:17:19;;;;;;;3.40;1.60;;;13.20;99.90;;;;;;4989027;28;20041;-71
2021/10/05 12:19:50;;;;;;;15.70;1.95;;;13.20;99.90;;;;;;4988964;28;20513;-70
2021/10/05 12:22:27;;;;;;;7.43;1.67;;;13.20;99.90;;;;;;4987901;28;20030;-70
2021/10/05 12:24:54;;;;;;;3.88;1.63;;;13.20;99.90;;;;;;4988922;28;20019;-70
2021/10/05 12:27:26;;;;;;;6.07;1.70;;;13.30;99.90;;;;;;4992036;28;20524;-70
2021/10/05 12:29:58;;;;;;;6.78;2.00;;;13.30;99.90;;;;;;4992006;28;20030;-69
2021/10/05 12:32:49;;;;;;;6.45;1.80;;;13.40;99.90;;;;;;4992016;28;20030;-69
2021/10/05 12:35:32;;;;;;;7.45;1.70;;;13.40;99.90;;;;;;4992255;28;20026;-69
2021/10/05 12:38:08;;;;;;;7.55;1.85;;;13.50;99.90;;;;;;4991955;28;20030;-69
2021/10/05 12:40:41;;;;;;;4.65;1.60;;;13.60;99.90;;;;;;4990689;28;20036;-69
2021/10/05 12:43:07;;;;;;;4.47;1.55;;;13.60;99.90;;;;;;4992193;28;20093;-69
2021/10/05 12:45:33;;;;;;;6.28;1.67;;;13.60;99.90;;;;;;4991910;28;20059;-70
2021/10/05 12:48:03;;;;;;;5.68;1.38;;;13.50;99.90;;;;;;4991714;28;20073;-70
2021/10/05 12:50:33;;;;;;;3.42;1.20;;;13.60;99.90;;;;;;4992049;28;20151;-68
2021/10/05 12:53:02;;;;;;;7.45;1.95;;;13.50;99.90;;;;;;4992003;28;20031;-68
2021/10/05 12:55:29;;;;;;;8.40;1.95;;;13.50;99.90;;;;;;4991537;28;20048;-68
2021/10/05 12:57:56;;;;;;;3.50;1.40;;;13.50;99.90;;;;;;4991536;28;20030;-69
2021/10/05 13:00:23;;;;;;;6.38;1.55;;;13.50;99.90;;;;;;4991721;28;20493;-69
2021/10/05 13:02:49;;;;;;;6.35;1.77;;;13.50;99.90;;;;;;4990721;28;20018;-69
2021/10/05 13:05:16;;;;;;;6.97;1.80;;;13.50;99.90;;;;;;4989764;28;20101;-69
2021/10/05 13:07:42;;;;;;;6.47;1.83;;;13.60;99.90;;;;;;4990811;28;20042;-69
2021/10/05 13:10:10;;;;;;;4.93;1.63;;;13.50;99.90;;;;;;4991353;28;20022;-69
2021/10/05 13:12:35;;;;;;;3.47;1.45;;;13.50;99.90;;;;;;4991511;28;20027;-69
2021/10/05 13:15:01;;;;;;;5.00;1.85;;;13.50;99.90;;;;;;4991324;28;20096;-69
2021/10/05 13:17:27;;;;;;;5.90;1.70;;;13.40;99.90;;;;;;4991221;28;20575;-69